sensor_id;sensor_type;location;lat;lon;timestamp;P1;durP1;ratioP1;P2;durP2;ratioP2
52414;SDS011;38340;52.964;6.086;2022-08-03T00:01:37;11.52;;;3.30;;
52414;SDS011;38340;52.964;6.086;2022-08-03T00:04:05;8.13;;;3.50;;
52414;SDS011;38340;52.964;6.086;2022-08-03T00:06:32;8.38;;;3.15;;
52414;SDS011;38340;52.964;6.086;2022-08-03T00:08:58;8.70;;;3.30;;
52414;SDS011;38340;52.964;6.086;2022-08-03T00:11:24;9.48;;;3.65;;
52414;SDS011;38340;52.964;6.086;2022-08-03T00:13:50;5.70;;;3.28;;
52414;SDS011;38340;52.964;6.086;2022-08-03T00:16:15;6.97;;;3.00;;
52414;SDS011;38340;52.964;6.086;2022-08-03T00:18:41;8.27;;;3.50;;
52414;SDS011;38340;52.964;6.086;2022-08-03T00:21:07;9.13;;;3.55;;
52414;SDS011;38340;52.964;6.086;2022-08-03T00:23:33;8.23;;;4.25;;
52414;SDS011;38340;52.964;6.086;2022-08-03T00:25:59;7.85;;;3.70;;
52414;SDS011;38340;52.964;6.086;2022-08-03T00:28:25;10.18;;;3.65;;
52414;SDS011;38340;52.964;6.086;2022-08-03T00:30:51;6.72;;;3.60;;
52414;SDS011;38340;52.964;6.086;2022-08-03T00:33:17;9.23;;;3.35;;
52414;SDS011;38340;52.964;6.086;2022-08-03T00:35:42;10.27;;;3.13;;
52414;SDS011;38340;52.964;6.086;2022-08-03T00:38:08;11.75;;;3.80;;
52414;SDS011;38340;52.964;6.086;2022-08-03T00:40:34;5.78;;;3.30;;
52414;SDS011;38340;52.964;6.086;2022-08-03T00:43:04;8.20;;;3.15;;
52414;SDS011;38340;52.964;6.086;2022-08-03T00:45:38;13.73;;;3.55;;
52414;SDS011;38340;52.964;6.086;2022-08-03T00:48:06;7.55;;;3.70;;
52414;SDS011;38340;52.964;6.086;2022-08-03T00:50:34;6.50;;;2.70;;
52414;SDS011;38340;52.964;6.086;2022-08-03T00:53:02;9.93;;;3.50;;
52414;SDS011;38340;52.964;6.086;2022-08-03T00:55:29;5.57;;;3.20;;
52414;SDS011;38340;52.964;6.086;2022-08-03T00:57:55;6.68;;;2.97;;
52414;SDS011;38340;52.964;6.086;2022-08-03T01:00:22;6.68;;;2.58;;
52414;SDS011;38340;52.964;6.086;2022-08-03T01:02:49;6.28;;;3.00;;
52414;SDS011;38340;52.964;6.086;2022-08-03T01:05:16;5.18;;;2.80;;
52414;SDS011;38340;52.964;6.086;2022-08-03T01:18:21;5.85;;;2.90;;
52414;SDS011;38340;52.964;6.086;2022-08-03T01:20:56;6.45;;;2.92;;
52414;SDS011;38340;52.964;6.086;2022-08-03T01:23:34;9.38;;;2.90;;
52414;SDS011;38340;52.964;6.086;2022-08-03T01:29:20;8.88;;;2.97;;
52414;SDS011;38340;52.964;6.086;2022-08-03T01:32:14;5.78;;;2.80;;
52414;SDS011;38340;52.964;6.086;2022-08-03T01:34:51;10.65;;;2.60;;
52414;SDS011;38340;52.964;6.086;2022-08-03T01:37:23;8.73;;;2.70;;
52414;SDS011;38340;52.964;6.086;2022-08-03T01:39:56;4.70;;;2.28;;
52414;SDS011;38340;52.964;6.086;2022-08-03T01:42:24;5.45;;;2.58;;
52414;SDS011;38340;52.964;6.086;2022-08-03T01:44:51;7.75;;;2.60;;
52414;SDS011;38340;52.964;6.086;2022-08-03T01:47:19;13.00;;;2.75;;
52414;SDS011;38340;52.964;6.086;2022-08-03T01:49:46;10.00;;;2.90;;
52414;SDS011;38340;52.964;6.086;2022-08-03T01:52:15;8.55;;;3.10;;
52414;SDS011;38340;52.964;6.086;2022-08-03T01:54:44;8.35;;;2.90;;
52414;SDS011;38340;52.964;6.086;2022-08-03T01:57:12;5.70;;;2.17;;
52414;SDS011;38340;52.964;6.086;2022-08-03T01:59:39;7.28;;;2.88;;
52414;SDS011;38340;52.964;6.086;2022-08-03T02:02:06;7.55;;;2.65;;
52414;SDS011;38340;52.964;6.086;2022-08-03T02:04:33;8.57;;;2.83;;
52414;SDS011;38340;52.964;6.086;2022-08-03T02:07:02;6.05;;;2.67;;
52414;SDS011;38340;52.964;6.086;2022-08-03T02:09:28;8.10;;;2.85;;
52414;SDS011;38340;52.964;6.086;2022-08-03T02:11:55;5.18;;;2.33;;
52414;SDS011;38340;52.964;6.086;2022-08-03T02:14:21;8.30;;;2.83;;
52414;SDS011;38340;52.964;6.086;2022-08-03T02:16:48;7.70;;;3.15;;
52414;SDS011;38340;52.964;6.086;2022-08-03T02:19:15;9.85;;;3.58;;
52414;SDS011;38340;52.964;6.086;2022-08-03T02:21:43;7.35;;;2.63;;
52414;SDS011;38340;52.964;6.086;2022-08-03T02:24:10;6.90;;;2.97;;
52414;SDS011;38340;52.964;6.086;2022-08-03T02:26:36;6.28;;;2.83;;
52414;SDS011;38340;52.964;6.086;2022-08-03T02:29:06;7.28;;;2.72;;
52414;SDS011;38340;52.964;6.086;2022-08-03T02:31:39;6.80;;;2.70;;
52414;SDS011;38340;52.964;6.086;2022-08-03T02:34:07;9.40;;;3.15;;
52414;SDS011;38340;52.964;6.086;2022-08-03T02:36:37;8.30;;;3.20;;
52414;SDS011;38340;52.964;6.086;2022-08-03T02:39:04;9.32;;;2.97;;
52414;SDS011;38340;52.964;6.086;2022-08-03T02:41:39;14.90;;;3.13;;
52414;SDS011;38340;52.964;6.086;2022-08-03T02:46:40;8.90;;;2.92;;
52414;SDS011;38340;52.964;6.086;2022-08-03T02:49:09;7.72;;;3.38;;
52414;SDS011;38340;52.964;6.086;2022-08-03T02:51:37;7.03;;;3.10;;
52414;SDS011;38340;52.964;6.086;2022-08-03T02:54:05;11.50;;;3.13;;
52414;SDS011;38340;52.964;6.086;2022-08-03T02:56:33;8.00;;;3.15;;
52414;SDS011;38340;52.964;6.086;2022-08-03T02:59:00;7.53;;;3.25;;
52414;SDS011;38340;52.964;6.086;2022-08-03T03:01:27;8.38;;;3.50;;
52414;SDS011;38340;52.964;6.086;2022-08-03T03:03:54;8.30;;;3.25;;
52414;SDS011;38340;52.964;6.086;2022-08-03T03:06:21;8.68;;;3.58;;
52414;SDS011;38340;52.964;6.086;2022-08-03T03:08:49;7.55;;;3.22;;
52414;SDS011;38340;52.964;6.086;2022-08-03T03:11:16;9.02;;;3.42;;
52414;SDS011;38340;52.964;6.086;2022-08-03T03:13:44;13.23;;;3.70;;
52414;SDS011;38340;52.964;6.086;2022-08-03T03:16:12;8.35;;;3.70;;
52414;SDS011;38340;52.964;6.086;2022-08-03T03:18:39;7.57;;;3.50;;
52414;SDS011;38340;52.964;6.086;2022-08-03T03:21:07;9.40;;;3.72;;
52414;SDS011;38340;52.964;6.086;2022-08-03T03:23:34;7.25;;;4.10;;
52414;SDS011;38340;52.964;6.086;2022-08-03T03:26:02;7.60;;;3.53;;
52414;SDS011;38340;52.964;6.086;2022-08-03T03:28:29;7.85;;;3.70;;
52414;SDS011;38340;52.964;6.086;2022-08-03T03:30:55;14.43;;;4.35;;
52414;SDS011;38340;52.964;6.086;2022-08-03T03:33:22;10.07;;;3.50;;
52414;SDS011;38340;52.964;6.086;2022-08-03T03:35:48;7.72;;;3.75;;
52414;SDS011;38340;52.964;6.086;2022-08-03T03:38:14;8.88;;;4.25;;
52414;SDS011;38340;52.964;6.086;2022-08-03T03:40:40;11.93;;;3.75;;
52414;SDS011;38340;52.964;6.086;2022-08-03T03:43:06;7.65;;;3.65;;
52414;SDS011;38340;52.964;6.086;2022-08-03T03:45:33;6.15;;;3.80;;
52414;SDS011;38340;52.964;6.086;2022-08-03T03:48:03;11.68;;;4.00;;
52414;SDS011;38340;52.964;6.086;2022-08-03T03:50:33;9.93;;;3.80;;
52414;SDS011;38340;52.964;6.086;2022-08-03T03:53:00;10.48;;;4.13;;
52414;SDS011;38340;52.964;6.086;2022-08-03T03:55:26;9.43;;;3.88;;
52414;SDS011;38340;52.964;6.086;2022-08-03T03:57:53;9.93;;;3.97;;
52414;SDS011;38340;52.964;6.086;2022-08-03T04:00:18;9.15;;;4.18;;
52414;SDS011;38340;52.964;6.086;2022-08-03T04:02:45;9.55;;;4.45;;
52414;SDS011;38340;52.964;6.086;2022-08-03T04:05:11;8.98;;;4.25;;
52414;SDS011;38340;52.964;6.086;2022-08-03T04:07:57;10.63;;;3.97;;
52414;SDS011;38340;52.964;6.086;2022-08-03T04:11:06;10.20;;;3.83;;
52414;SDS011;38340;52.964;6.086;2022-08-03T04:13:37;10.00;;;4.00;;
52414;SDS011;38340;52.964;6.086;2022-08-03T04:16:07;10.70;;;4.88;;
52414;SDS011;38340;52.964;6.086;2022-08-03T04:18:36;9.57;;;3.63;;
52414;SDS011;38340;52.964;6.086;2022-08-03T04:21:05;9.57;;;3.92;;
52414;SDS011;38340;52.964;6.086;2022-08-03T04:23:38;11.05;;;3.90;;
52414;SDS011;38340;52.964;6.086;2022-08-03T04:26:09;9.75;;;4.30;;
52414;SDS011;38340;52.964;6.086;2022-08-03T04:28:38;11.82;;;4.15;;
52414;SDS011;38340;52.964;6.086;2022-08-03T04:31:08;9.90;;;4.28;;
52414;SDS011;38340;52.964;6.086;2022-08-03T04:33:34;8.50;;;4.10;;
52414;SDS011;38340;52.964;6.086;2022-08-03T04:36:03;10.02;;;4.75;;
52414;SDS011;38340;52.964;6.086;2022-08-03T04:38:31;10.48;;;4.10;;
52414;SDS011;38340;52.964;6.086;2022-08-03T04:41:01;9.60;;;3.88;;
52414;SDS011;38340;52.964;6.086;2022-08-03T04:43:28;9.65;;;4.22;;
52414;SDS011;38340;52.964;6.086;2022-08-03T04:45:56;10.75;;;4.55;;
52414;SDS011;38340;52.964;6.086;2022-08-03T04:48:23;9.18;;;3.97;;
52414;SDS011;38340;52.964;6.086;2022-08-03T04:50:49;7.80;;;3.55;;
52414;SDS011;38340;52.964;6.086;2022-08-03T04:53:15;9.02;;;4.00;;
52414;SDS011;38340;52.964;6.086;2022-08-03T04:55:42;10.55;;;3.90;;
52414;SDS011;38340;52.964;6.086;2022-08-03T04:58:08;7.78;;;3.35;;
52414;SDS011;38340;52.964;6.086;2022-08-03T05:00:33;10.85;;;4.15;;
52414;SDS011;38340;52.964;6.086;2022-08-03T05:02:59;9.02;;;3.53;;
52414;SDS011;38340;52.964;6.086;2022-08-03T05:05:25;8.57;;;3.72;;
52414;SDS011;38340;52.964;6.086;2022-08-03T05:07:50;10.23;;;3.65;;
52414;SDS011;38340;52.964;6.086;2022-08-03T05:10:16;10.63;;;4.07;;
52414;SDS011;38340;52.964;6.086;2022-08-03T05:12:43;10.38;;;3.25;;
52414;SDS011;38340;52.964;6.086;2022-08-03T05:15:09;10.10;;;4.20;;
52414;SDS011;38340;52.964;6.086;2022-08-03T05:17:36;9.18;;;3.75;;
52414;SDS011;38340;52.964;6.086;2022-08-03T05:20:02;8.25;;;3.40;;
52414;SDS011;38340;52.964;6.086;2022-08-03T05:22:28;8.95;;;3.80;;
52414;SDS011;38340;52.964;6.086;2022-08-03T05:24:54;11.07;;;3.70;;
52414;SDS011;38340;52.964;6.086;2022-08-03T05:27:20;7.75;;;3.70;;
52414;SDS011;38340;52.964;6.086;2022-08-03T05:29:46;10.77;;;3.75;;
52414;SDS011;38340;52.964;6.086;2022-08-03T05:32:13;9.40;;;4.10;;
52414;SDS011;38340;52.964;6.086;2022-08-03T05:34:39;11.00;;;3.75;;
52414;SDS011;38340;52.964;6.086;2022-08-03T05:37:05;13.35;;;3.63;;
52414;SDS011;38340;52.964;6.086;2022-08-03T05:39:31;12.13;;;4.13;;
52414;SDS011;38340;52.964;6.086;2022-08-03T05:41:57;7.20;;;3.72;;
52414;SDS011;38340;52.964;6.086;2022-08-03T05:44:23;10.27;;;4.07;;
52414;SDS011;38340;52.964;6.086;2022-08-03T05:46:49;7.55;;;3.53;;
52414;SDS011;38340;52.964;6.086;2022-08-03T05:49:16;7.40;;;3.55;;
52414;SDS011;38340;52.964;6.086;2022-08-03T05:51:42;11.23;;;3.97;;
52414;SDS011;38340;52.964;6.086;2022-08-03T05:54:08;10.75;;;3.92;;
52414;SDS011;38340;52.964;6.086;2022-08-03T05:56:34;11.05;;;3.78;;
52414;SDS011;38340;52.964;6.086;2022-08-03T05:58:59;10.88;;;4.15;;
52414;SDS011;38340;52.964;6.086;2022-08-03T06:01:25;7.50;;;3.88;;
52414;SDS011;38340;52.964;6.086;2022-08-03T06:03:51;10.52;;;4.35;;
52414;SDS011;38340;52.964;6.086;2022-08-03T06:06:17;12.88;;;4.45;;
52414;SDS011;38340;52.964;6.086;2022-08-03T06:08:43;12.25;;;4.55;;
52414;SDS011;38340;52.964;6.086;2022-08-03T06:11:10;16.17;;;4.30;;
52414;SDS011;38340;52.964;6.086;2022-08-03T06:13:36;9.38;;;4.55;;
52414;SDS011;38340;52.964;6.086;2022-08-03T06:16:02;15.80;;;4.68;;
52414;SDS011;38340;52.964;6.086;2022-08-03T06:18:28;13.10;;;3.80;;
52414;SDS011;38340;52.964;6.086;2022-08-03T06:20:54;14.40;;;4.18;;
52414;SDS011;38340;52.964;6.086;2022-08-03T06:23:20;12.93;;;5.15;;
52414;SDS011;38340;52.964;6.086;2022-08-03T06:25:46;15.70;;;4.60;;
52414;SDS011;38340;52.964;6.086;2022-08-03T06:28:11;10.02;;;4.30;;
52414;SDS011;38340;52.964;6.086;2022-08-03T06:30:42;10.73;;;4.60;;
52414;SDS011;38340;52.964;6.086;2022-08-03T06:33:08;11.13;;;4.60;;
52414;SDS011;38340;52.964;6.086;2022-08-03T06:35:34;14.88;;;4.57;;
52414;SDS011;38340;52.964;6.086;2022-08-03T06:38:00;15.82;;;4.72;;
52414;SDS011;38340;52.964;6.086;2022-08-03T06:40:25;13.90;;;5.22;;
52414;SDS011;38340;52.964;6.086;2022-08-03T06:42:55;13.77;;;4.32;;
52414;SDS011;38340;52.964;6.086;2022-08-03T06:45:25;12.75;;;5.07;;
52414;SDS011;38340;52.964;6.086;2022-08-03T06:48:26;12.30;;;5.13;;
52414;SDS011;38340;52.964;6.086;2022-08-03T06:50:45;13.98;;;4.05;;
52414;SDS011;38340;52.964;6.086;2022-08-03T06:53:10;14.05;;;5.07;;
52414;SDS011;38340;52.964;6.086;2022-08-03T06:55:36;16.42;;;4.63;;
52414;SDS011;38340;52.964;6.086;2022-08-03T06:58:02;12.70;;;4.25;;
52414;SDS011;38340;52.964;6.086;2022-08-03T07:00:27;11.85;;;4.57;;
52414;SDS011;38340;52.964;6.086;2022-08-03T07:02:54;13.18;;;5.18;;
52414;SDS011;38340;52.964;6.086;2022-08-03T07:05:20;12.02;;;5.15;;
52414;SDS011;38340;52.964;6.086;2022-08-03T07:07:47;16.10;;;4.78;;
52414;SDS011;38340;52.964;6.086;2022-08-03T07:10:13;11.43;;;4.85;;
52414;SDS011;38340;52.964;6.086;2022-08-03T07:12:39;13.15;;;5.90;;
52414;SDS011;38340;52.964;6.086;2022-08-03T07:15:05;11.13;;;4.85;;
52414;SDS011;38340;52.964;6.086;2022-08-03T07:17:32;14.00;;;4.78;;
52414;SDS011;38340;52.964;6.086;2022-08-03T07:19:59;13.25;;;5.10;;
52414;SDS011;38340;52.964;6.086;2022-08-03T07:22:29;12.70;;;5.78;;
52414;SDS011;38340;52.964;6.086;2022-08-03T07:24:54;14.15;;;6.20;;
52414;SDS011;38340;52.964;6.086;2022-08-03T07:27:20;11.98;;;5.78;;
52414;SDS011;38340;52.964;6.086;2022-08-03T07:29:46;16.83;;;6.05;;
52414;SDS011;38340;52.964;6.086;2022-08-03T07:32:12;12.98;;;6.45;;
52414;SDS011;38340;52.964;6.086;2022-08-03T07:34:37;13.57;;;6.18;;
52414;SDS011;38340;52.964;6.086;2022-08-03T07:37:03;12.77;;;6.05;;
52414;SDS011;38340;52.964;6.086;2022-08-03T07:39:29;11.63;;;6.22;;
52414;SDS011;38340;52.964;6.086;2022-08-03T07:41:54;12.70;;;6.32;;
52414;SDS011;38340;52.964;6.086;2022-08-03T07:44:20;14.73;;;6.63;;
52414;SDS011;38340;52.964;6.086;2022-08-03T07:46:46;14.38;;;6.55;;
52414;SDS011;38340;52.964;6.086;2022-08-03T07:49:12;14.20;;;6.80;;
52414;SDS011;38340;52.964;6.086;2022-08-03T07:51:37;14.13;;;6.32;;
52414;SDS011;38340;52.964;6.086;2022-08-03T07:54:03;19.83;;;6.47;;
52414;SDS011;38340;52.964;6.086;2022-08-03T07:56:29;16.60;;;7.50;;
52414;SDS011;38340;52.964;6.086;2022-08-03T07:58:55;16.73;;;6.80;;
52414;SDS011;38340;52.964;6.086;2022-08-03T08:01:21;16.75;;;6.70;;
52414;SDS011;38340;52.964;6.086;2022-08-03T08:03:47;19.27;;;7.43;;
52414;SDS011;38340;52.964;6.086;2022-08-03T08:06:14;11.43;;;7.05;;
52414;SDS011;38340;52.964;6.086;2022-08-03T08:08:40;14.40;;;6.78;;
52414;SDS011;38340;52.964;6.086;2022-08-03T08:11:06;16.13;;;7.38;;
52414;SDS011;38340;52.964;6.086;2022-08-03T08:13:32;11.10;;;6.57;;
52414;SDS011;38340;52.964;6.086;2022-08-03T08:15:58;19.33;;;8.02;;
52414;SDS011;38340;52.964;6.086;2022-08-03T08:18:24;12.15;;;7.70;;
52414;SDS011;38340;52.964;6.086;2022-08-03T08:20:54;16.13;;;7.78;;
52414;SDS011;38340;52.964;6.086;2022-08-03T08:23:20;19.42;;;7.50;;
52414;SDS011;38340;52.964;6.086;2022-08-03T08:25:49;14.43;;;7.53;;
52414;SDS011;38340;52.964;6.086;2022-08-03T08:28:19;16.17;;;7.93;;
52414;SDS011;38340;52.964;6.086;2022-08-03T08:30:46;17.92;;;8.07;;
52414;SDS011;38340;52.964;6.086;2022-08-03T08:33:11;14.38;;;7.05;;
52414;SDS011;38340;52.964;6.086;2022-08-03T08:35:37;15.05;;;7.10;;
52414;SDS011;38340;52.964;6.086;2022-08-03T08:38:03;14.32;;;7.30;;
52414;SDS011;38340;52.964;6.086;2022-08-03T08:40:29;12.73;;;6.32;;
52414;SDS011;38340;52.964;6.086;2022-08-03T08:42:54;15.23;;;6.80;;
52414;SDS011;38340;52.964;6.086;2022-08-03T08:45:20;18.27;;;6.82;;
52414;SDS011;38340;52.964;6.086;2022-08-03T08:47:47;15.52;;;6.45;;
52414;SDS011;38340;52.964;6.086;2022-08-03T08:50:19;17.73;;;7.43;;
52414;SDS011;38340;52.964;6.086;2022-08-03T08:52:49;9.77;;;6.30;;
52414;SDS011;38340;52.964;6.086;2022-08-03T08:55:21;19.00;;;6.97;;
52414;SDS011;38340;52.964;6.086;2022-08-03T08:58:05;15.15;;;6.90;;
52414;SDS011;38340;52.964;6.086;2022-08-03T09:00:33;17.10;;;6.65;;
52414;SDS011;38340;52.964;6.086;2022-08-03T09:02:59;11.90;;;6.45;;
52414;SDS011;38340;52.964;6.086;2022-08-03T09:05:26;14.32;;;6.63;;
52414;SDS011;38340;52.964;6.086;2022-08-03T09:07:51;17.75;;;6.60;;
52414;SDS011;38340;52.964;6.086;2022-08-03T09:10:17;13.35;;;6.65;;
52414;SDS011;38340;52.964;6.086;2022-08-03T09:12:47;14.85;;;6.78;;
52414;SDS011;38340;52.964;6.086;2022-08-03T09:15:35;15.35;;;6.70;;
52414;SDS011;38340;52.964;6.086;2022-08-03T09:18:02;11.60;;;6.55;;
52414;SDS011;38340;52.964;6.086;2022-08-03T09:20:32;10.35;;;5.82;;
52414;SDS011;38340;52.964;6.086;2022-08-03T09:23:04;15.05;;;7.07;;
52414;SDS011;38340;52.964;6.086;2022-08-03T09:28:05;13.32;;;6.82;;
52414;SDS011;38340;52.964;6.086;2022-08-03T09:30:39;14.00;;;7.07;;
52414;SDS011;38340;52.964;6.086;2022-08-03T09:33:13;15.38;;;6.13;;
52414;SDS011;38340;52.964;6.086;2022-08-03T09:35:46;13.20;;;8.18;;
52414;SDS011;38340;52.964;6.086;2022-08-03T09:38:23;12.45;;;6.65;;
52414;SDS011;38340;52.964;6.086;2022-08-03T09:40:52;16.15;;;7.35;;
52414;SDS011;38340;52.964;6.086;2022-08-03T09:43:20;14.88;;;6.22;;
52414;SDS011;38340;52.964;6.086;2022-08-03T09:45:46;16.45;;;7.18;;
52414;SDS011;38340;52.964;6.086;2022-08-03T09:48:25;15.90;;;7.25;;
52414;SDS011;38340;52.964;6.086;2022-08-03T09:50:54;16.63;;;6.55;;
52414;SDS011;38340;52.964;6.086;2022-08-03T09:53:24;18.00;;;7.68;;
52414;SDS011;38340;52.964;6.086;2022-08-03T09:55:51;13.43;;;6.78;;
52414;SDS011;38340;52.964;6.086;2022-08-03T09:58:25;21.35;;;7.70;;
52414;SDS011;38340;52.964;6.086;2022-08-03T10:03:18;18.40;;;7.10;;
52414;SDS011;38340;52.964;6.086;2022-08-03T10:05:44;13.35;;;7.85;;
52414;SDS011;38340;52.964;6.086;2022-08-03T10:08:14;17.10;;;7.72;;
52414;SDS011;38340;52.964;6.086;2022-08-03T10:10:41;17.92;;;6.80;;
52414;SDS011;38340;52.964;6.086;2022-08-03T10:13:09;17.77;;;7.85;;
52414;SDS011;38340;52.964;6.086;2022-08-03T10:15:38;17.60;;;7.60;;
52414;SDS011;38340;52.964;6.086;2022-08-03T10:18:04;18.23;;;8.07;;
52414;SDS011;38340;52.964;6.086;2022-08-03T10:20:30;19.60;;;8.52;;
52414;SDS011;38340;52.964;6.086;2022-08-03T10:23:00;21.75;;;8.05;;
52414;SDS011;38340;52.964;6.086;2022-08-03T10:25:27;17.77;;;8.02;;
52414;SDS011;38340;52.964;6.086;2022-08-03T10:27:55;16.42;;;7.10;;
52414;SDS011;38340;52.964;6.086;2022-08-03T10:30:22;19.63;;;7.40;;
52414;SDS011;38340;52.964;6.086;2022-08-03T10:35:21;14.60;;;7.13;;
52414;SDS011;38340;52.964;6.086;2022-08-03T10:38:02;19.85;;;8.45;;
52414;SDS011;38340;52.964;6.086;2022-08-03T10:40:32;15.63;;;8.07;;
52414;SDS011;38340;52.964;6.086;2022-08-03T10:43:04;15.10;;;8.20;;
52414;SDS011;38340;52.964;6.086;2022-08-03T10:45:35;19.60;;;7.70;;
52414;SDS011;38340;52.964;6.086;2022-08-03T10:48:05;18.23;;;7.55;;
52414;SDS011;38340;52.964;6.086;2022-08-03T10:50:31;14.88;;;7.03;;
52414;SDS011;38340;52.964;6.086;2022-08-03T10:53:05;15.05;;;8.18;;
52414;SDS011;38340;52.964;6.086;2022-08-03T10:55:37;13.68;;;7.00;;
52414;SDS011;38340;52.964;6.086;2022-08-03T11:01:08;21.05;;;7.82;;
52414;SDS011;38340;52.964;6.086;2022-08-03T11:06:18;19.33;;;7.93;;
52414;SDS011;38340;52.964;6.086;2022-08-03T11:08:47;14.90;;;7.43;;
52414;SDS011;38340;52.964;6.086;2022-08-03T11:17:05;20.42;;;7.95;;
52414;SDS011;38340;52.964;6.086;2022-08-03T11:19:43;18.75;;;8.20;;
52414;SDS011;38340;52.964;6.086;2022-08-03T11:22:10;17.15;;;8.27;;
52414;SDS011;38340;52.964;6.086;2022-08-03T11:35:08;13.23;;;8.25;;
52414;SDS011;38340;52.964;6.086;2022-08-03T11:38:23;20.52;;;8.40;;
52414;SDS011;38340;52.964;6.086;2022-08-03T11:42:58;15.95;;;7.75;;
52414;SDS011;38340;52.964;6.086;2022-08-03T11:45:24;11.43;;;6.85;;
52414;SDS011;38340;52.964;6.086;2022-08-03T11:47:53;23.63;;;8.27;;
52414;SDS011;38340;52.964;6.086;2022-08-03T11:50:20;14.60;;;7.93;;
52414;SDS011;38340;52.964;6.086;2022-08-03T11:52:47;23.80;;;8.80;;
52414;SDS011;38340;52.964;6.086;2022-08-03T11:55:14;17.55;;;8.32;;
52414;SDS011;38340;52.964;6.086;2022-08-03T11:57:42;14.07;;;7.53;;
52414;SDS011;38340;52.964;6.086;2022-08-03T12:03:09;19.30;;;8.93;;
52414;SDS011;38340;52.964;6.086;2022-08-03T12:05:42;14.65;;;7.65;;
52414;SDS011;38340;52.964;6.086;2022-08-03T12:08:10;19.25;;;9.23;;
52414;SDS011;38340;52.964;6.086;2022-08-03T12:10:38;18.55;;;8.88;;
52414;SDS011;38340;52.964;6.086;2022-08-03T12:13:05;16.73;;;6.95;;
52414;SDS011;38340;52.964;6.086;2022-08-03T12:15:33;15.00;;;6.00;;
52414;SDS011;38340;52.964;6.086;2022-08-03T12:18:11;16.48;;;7.03;;
52414;SDS011;38340;52.964;6.086;2022-08-03T12:20:38;19.17;;;7.25;;
52414;SDS011;38340;52.964;6.086;2022-08-03T12:23:05;17.35;;;7.95;;
52414;SDS011;38340;52.964;6.086;2022-08-03T12:25:34;20.30;;;7.40;;
52414;SDS011;38340;52.964;6.086;2022-08-03T12:28:17;16.58;;;7.43;;
52414;SDS011;38340;52.964;6.086;2022-08-03T12:30:48;17.67;;;6.55;;
52414;SDS011;38340;52.964;6.086;2022-08-03T12:35:49;16.95;;;6.13;;
52414;SDS011;38340;52.964;6.086;2022-08-03T12:38:32;19.67;;;7.45;;
52414;SDS011;38340;52.964;6.086;2022-08-03T12:41:08;12.88;;;5.90;;
52414;SDS011;38340;52.964;6.086;2022-08-03T12:43:46;11.88;;;6.07;;
52414;SDS011;38340;52.964;6.086;2022-08-03T12:46:14;13.93;;;6.05;;
52414;SDS011;38340;52.964;6.086;2022-08-03T12:51:26;18.85;;;6.60;;
52414;SDS011;38340;52.964;6.086;2022-08-03T12:53:56;14.40;;;6.80;;
52414;SDS011;38340;52.964;6.086;2022-08-03T12:56:23;14.18;;;5.93;;
52414;SDS011;38340;52.964;6.086;2022-08-03T12:58:49;13.48;;;6.22;;
52414;SDS011;38340;52.964;6.086;2022-08-03T13:01:15;18.95;;;7.10;;
52414;SDS011;38340;52.964;6.086;2022-08-03T13:03:45;14.77;;;6.40;;
52414;SDS011;38340;52.964;6.086;2022-08-03T13:06:12;17.00;;;6.35;;
52414;SDS011;38340;52.964;6.086;2022-08-03T13:08:40;14.77;;;6.88;;
52414;SDS011;38340;52.964;6.086;2022-08-03T13:11:16;14.45;;;6.35;;
52414;SDS011;38340;52.964;6.086;2022-08-03T13:13:43;16.08;;;6.70;;
52414;SDS011;38340;52.964;6.086;2022-08-03T13:16:10;17.33;;;7.40;;
52414;SDS011;38340;52.964;6.086;2022-08-03T13:18:35;12.85;;;6.25;;
52414;SDS011;38340;52.964;6.086;2022-08-03T13:21:01;16.20;;;7.18;;
52414;SDS011;38340;52.964;6.086;2022-08-03T13:23:27;11.75;;;6.53;;
52414;SDS011;38340;52.964;6.086;2022-08-03T13:25:52;12.30;;;5.60;;
52414;SDS011;38340;52.964;6.086;2022-08-03T13:28:18;14.23;;;6.65;;
52414;SDS011;38340;52.964;6.086;2022-08-03T13:30:43;14.40;;;6.25;;
52414;SDS011;38340;52.964;6.086;2022-08-03T13:33:09;14.60;;;5.78;;
52414;SDS011;38340;52.964;6.086;2022-08-03T13:35:35;10.02;;;5.43;;
52414;SDS011;38340;52.964;6.086;2022-08-03T13:38:00;12.30;;;5.75;;
52414;SDS011;38340;52.964;6.086;2022-08-03T13:40:26;14.57;;;6.05;;
52414;SDS011;38340;52.964;6.086;2022-08-03T13:42:52;13.55;;;5.18;;
52414;SDS011;38340;52.964;6.086;2022-08-03T13:45:17;16.08;;;6.25;;
52414;SDS011;38340;52.964;6.086;2022-08-03T13:47:43;12.80;;;5.55;;
52414;SDS011;38340;52.964;6.086;2022-08-03T13:50:09;13.30;;;4.93;;
52414;SDS011;38340;52.964;6.086;2022-08-03T13:52:34;14.40;;;5.47;;
52414;SDS011;38340;52.964;6.086;2022-08-03T13:55:01;12.13;;;5.35;;
52414;SDS011;38340;52.964;6.086;2022-08-03T13:57:28;11.88;;;5.10;;
52414;SDS011;38340;52.964;6.086;2022-08-03T13:59:54;11.60;;;4.90;;
52414;SDS011;38340;52.964;6.086;2022-08-03T14:02:20;12.77;;;5.80;;
52414;SDS011;38340;52.964;6.086;2022-08-03T14:04:45;15.20;;;5.72;;
52414;SDS011;38340;52.964;6.086;2022-08-03T14:07:11;10.90;;;6.18;;
52414;SDS011;38340;52.964;6.086;2022-08-03T14:09:39;10.88;;;5.00;;
52414;SDS011;38340;52.964;6.086;2022-08-03T14:12:05;11.05;;;5.32;;
52414;SDS011;38340;52.964;6.086;2022-08-03T14:14:30;15.60;;;5.45;;
52414;SDS011;38340;52.964;6.086;2022-08-03T14:16:56;10.68;;;5.43;;
52414;SDS011;38340;52.964;6.086;2022-08-03T14:19:22;9.75;;;4.70;;
52414;SDS011;38340;52.964;6.086;2022-08-03T14:21:47;17.77;;;5.35;;
52414;SDS011;38340;52.964;6.086;2022-08-03T14:24:13;11.50;;;5.38;;
52414;SDS011;38340;52.964;6.086;2022-08-03T14:26:39;17.77;;;5.43;;
52414;SDS011;38340;52.964;6.086;2022-08-03T14:29:04;13.18;;;5.20;;
52414;SDS011;38340;52.964;6.086;2022-08-03T14:31:30;10.20;;;4.72;;
52414;SDS011;38340;52.964;6.086;2022-08-03T14:33:56;12.43;;;5.20;;
52414;SDS011;38340;52.964;6.086;2022-08-03T14:36:21;11.45;;;5.25;;
52414;SDS011;38340;52.964;6.086;2022-08-03T14:38:47;12.18;;;5.47;;
52414;SDS011;38340;52.964;6.086;2022-08-03T14:41:13;11.95;;;5.18;;
52414;SDS011;38340;52.964;6.086;2022-08-03T14:43:38;12.93;;;4.85;;
52414;SDS011;38340;52.964;6.086;2022-08-03T14:46:04;10.90;;;4.95;;
52414;SDS011;38340;52.964;6.086;2022-08-03T14:48:30;12.75;;;3.85;;
52414;SDS011;38340;52.964;6.086;2022-08-03T14:50:56;13.88;;;5.03;;
52414;SDS011;38340;52.964;6.086;2022-08-03T14:53:22;12.52;;;4.50;;
52414;SDS011;38340;52.964;6.086;2022-08-03T14:55:48;9.93;;;4.13;;
52414;SDS011;38340;52.964;6.086;2022-08-03T14:58:15;8.20;;;4.30;;
52414;SDS011;38340;52.964;6.086;2022-08-03T15:00:40;14.65;;;5.03;;
52414;SDS011;38340;52.964;6.086;2022-08-03T15:03:06;7.07;;;3.78;;
52414;SDS011;38340;52.964;6.086;2022-08-03T15:05:32;9.98;;;4.50;;
52414;SDS011;38340;52.964;6.086;2022-08-03T15:07:58;9.88;;;3.78;;
52414;SDS011;38340;52.964;6.086;2022-08-03T15:10:23;11.27;;;3.88;;
52414;SDS011;38340;52.964;6.086;2022-08-03T15:12:49;12.30;;;4.13;;
52414;SDS011;38340;52.964;6.086;2022-08-03T15:15:15;9.70;;;4.10;;
52414;SDS011;38340;52.964;6.086;2022-08-03T15:17:40;10.95;;;3.85;;
52414;SDS011;38340;52.964;6.086;2022-08-03T15:20:06;10.75;;;3.88;;
52414;SDS011;38340;52.964;6.086;2022-08-03T15:22:37;14.77;;;4.55;;
52414;SDS011;38340;52.964;6.086;2022-08-03T15:25:04;9.73;;;4.18;;
52414;SDS011;38340;52.964;6.086;2022-08-03T15:27:30;12.23;;;5.05;;
52414;SDS011;38340;52.964;6.086;2022-08-03T15:29:55;12.63;;;4.85;;
52414;SDS011;38340;52.964;6.086;2022-08-03T15:32:21;9.50;;;4.03;;
52414;SDS011;38340;52.964;6.086;2022-08-03T15:34:47;11.73;;;4.47;;
52414;SDS011;38340;52.964;6.086;2022-08-03T15:37:13;14.32;;;5.25;;
52414;SDS011;38340;52.964;6.086;2022-08-03T15:39:38;8.60;;;4.22;;